sensor_id;sensor_type;location;lat;lon;timestamp;P1;durP1;ratioP1;P2;durP2;ratioP2
5299;SDS011;70402;42.670;23.258;2023-05-29T00:00:20;7.40;;;4.00;;
5299;SDS011;70402;42.670;23.258;2023-05-29T00:02:47;7.73;;;4.80;;
5299;SDS011;70402;42.670;23.258;2023-05-29T00:05:13;7.90;;;5.13;;
5299;SDS011;70402;42.670;23.258;2023-05-29T00:07:40;5.67;;;5.10;;
5299;SDS011;70402;42.670;23.258;2023-05-29T00:10:06;6.60;;;4.43;;
5299;SDS011;70402;42.670;23.258;2023-05-29T00:12:34;5.33;;;4.10;;
5299;SDS011;70402;42.670;23.258;2023-05-29T00:15:01;5.60;;;4.50;;
5299;SDS011;70402;42.670;23.258;2023-05-29T00:17:29;8.90;;;4.43;;
5299;SDS011;70402;42.670;23.258;2023-05-29T00:19:57;7.73;;;4.57;;
5299;SDS011;70402;42.670;23.258;2023-05-29T00:22:24;7.57;;;4.47;;
5299;SDS011;70402;42.670;23.258;2023-05-29T00:24:53;6.73;;;4.83;;
5299;SDS011;70402;42.670;23.258;2023-05-29T00:27:19;14.50;;;5.20;;
5299;SDS011;70402;42.670;23.258;2023-05-29T00:29:45;10.50;;;5.03;;
5299;SDS011;70402;42.670;23.258;2023-05-29T00:32:11;6.33;;;4.80;;
5299;SDS011;70402;42.670;23.258;2023-05-29T00:34:37;10.03;;;4.47;;
5299;SDS011;70402;42.670;23.258;2023-05-29T00:37:03;12.53;;;5.17;;
5299;SDS011;70402;42.670;23.258;2023-05-29T00:39:29;6.30;;;5.13;;
5299;SDS011;70402;42.670;23.258;2023-05-29T00:41:56;9.30;;;5.47;;
5299;SDS011;70402;42.670;23.258;2023-05-29T00:44:22;10.87;;;4.80;;
5299;SDS011;70402;42.670;23.258;2023-05-29T00:46:51;6.40;;;4.80;;
5299;SDS011;70402;42.670;23.258;2023-05-29T00:49:21;5.07;;;4.50;;
5299;SDS011;70402;42.670;23.258;2023-05-29T00:51:47;9.77;;;5.40;;
5299;SDS011;70402;42.670;23.258;2023-05-29T00:54:17;6.13;;;4.47;;
5299;SDS011;70402;42.670;23.258;2023-05-29T00:56:46;9.10;;;5.10;;
5299;SDS011;70402;42.670;23.258;2023-05-29T00:59:13;6.10;;;4.90;;
5299;SDS011;70402;42.670;23.258;2023-05-29T01:01:39;8.80;;;4.80;;
5299;SDS011;70402;42.670;23.258;2023-05-29T01:04:05;10.33;;;5.00;;
5299;SDS011;70402;42.670;23.258;2023-05-29T01:06:35;7.03;;;4.77;;
5299;SDS011;70402;42.670;23.258;2023-05-29T01:09:01;12.40;;;5.20;;
5299;SDS011;70402;42.670;23.258;2023-05-29T01:11:45;6.97;;;5.10;;
5299;SDS011;70402;42.670;23.258;2023-05-29T01:20:23;5.90;;;4.60;;
5299;SDS011;70402;42.670;23.258;2023-05-29T01:28:17;20.10;;;6.20;;
5299;SDS011;70402;42.670;23.258;2023-05-29T01:30:47;10.10;;;5.60;;
5299;SDS011;70402;42.670;23.258;2023-05-29T01:33:13;8.03;;;5.67;;
5299;SDS011;70402;42.670;23.258;2023-05-29T01:35:40;11.83;;;5.13;;
5299;SDS011;70402;42.670;23.258;2023-05-29T01:38:06;8.43;;;5.23;;
5299;SDS011;70402;42.670;23.258;2023-05-29T01:40:31;9.37;;;7.13;;
5299;SDS011;70402;42.670;23.258;2023-05-29T01:42:58;8.67;;;5.93;;
5299;SDS011;70402;42.670;23.258;2023-05-29T01:45:23;7.87;;;5.20;;
5299;SDS011;70402;42.670;23.258;2023-05-29T01:47:49;7.57;;;4.93;;
5299;SDS011;70402;42.670;23.258;2023-05-29T01:50:16;9.03;;;5.53;;
5299;SDS011;70402;42.670;23.258;2023-05-29T01:52:43;8.30;;;5.90;;
5299;SDS011;70402;42.670;23.258;2023-05-29T01:55:10;6.97;;;5.53;;
5299;SDS011;70402;42.670;23.258;2023-05-29T01:57:36;7.90;;;5.70;;
5299;SDS011;70402;42.670;23.258;2023-05-29T02:00:03;8.60;;;5.60;;
5299;SDS011;70402;42.670;23.258;2023-05-29T02:02:39;9.40;;;5.73;;
5299;SDS011;70402;42.670;23.258;2023-05-29T02:05:06;10.77;;;4.93;;
5299;SDS011;70402;42.670;23.258;2023-05-29T02:07:33;7.67;;;5.50;;
5299;SDS011;70402;42.670;23.258;2023-05-29T02:10:02;9.50;;;6.07;;
5299;SDS011;70402;42.670;23.258;2023-05-29T02:12:29;8.37;;;6.27;;
5299;SDS011;70402;42.670;23.258;2023-05-29T02:14:55;10.57;;;6.67;;
5299;SDS011;70402;42.670;23.258;2023-05-29T02:17:22;11.83;;;5.47;;
5299;SDS011;70402;42.670;23.258;2023-05-29T02:19:48;7.90;;;5.33;;
5299;SDS011;70402;42.670;23.258;2023-05-29T02:22:13;6.63;;;5.60;;
5299;SDS011;70402;42.670;23.258;2023-05-29T02:24:39;13.83;;;5.57;;
5299;SDS011;70402;42.670;23.258;2023-05-29T02:27:05;10.90;;;5.93;;
5299;SDS011;70402;42.670;23.258;2023-05-29T02:29:31;8.67;;;6.10;;
5299;SDS011;70402;42.670;23.258;2023-05-29T02:31:57;9.33;;;5.97;;
5299;SDS011;70402;42.670;23.258;2023-05-29T02:34:23;16.03;;;6.77;;
5299;SDS011;70402;42.670;23.258;2023-05-29T02:36:50;8.17;;;5.80;;
5299;SDS011;70402;42.670;23.258;2023-05-29T02:39:20;10.60;;;5.97;;
5299;SDS011;70402;42.670;23.258;2023-05-29T02:41:45;8.67;;;6.23;;
5299;SDS011;70402;42.670;23.258;2023-05-29T02:44:11;9.87;;;5.53;;
5299;SDS011;70402;42.670;23.258;2023-05-29T02:46:37;9.57;;;6.10;;
5299;SDS011;70402;42.670;23.258;2023-05-29T02:49:03;11.90;;;5.90;;
5299;SDS011;70402;42.670;23.258;2023-05-29T02:51:29;13.53;;;6.70;;
5299;SDS011;70402;42.670;23.258;2023-05-29T02:53:57;7.03;;;5.70;;
5299;SDS011;70402;42.670;23.258;2023-05-29T02:56:23;11.60;;;6.60;;
5299;SDS011;70402;42.670;23.258;2023-05-29T02:58:52;9.40;;;6.47;;
5299;SDS011;70402;42.670;23.258;2023-05-29T03:01:18;8.03;;;6.70;;
5299;SDS011;70402;42.670;23.258;2023-05-29T03:03:44;16.40;;;7.00;;
5299;SDS011;70402;42.670;23.258;2023-05-29T03:06:10;14.70;;;7.00;;
5299;SDS011;70402;42.670;23.258;2023-05-29T03:08:37;10.50;;;7.40;;
5299;SDS011;70402;42.670;23.258;2023-05-29T03:11:07;10.10;;;7.03;;
5299;SDS011;70402;42.670;23.258;2023-05-29T03:13:36;10.20;;;6.80;;
5299;SDS011;70402;42.670;23.258;2023-05-29T03:16:02;10.63;;;6.50;;
5299;SDS011;70402;42.670;23.258;2023-05-29T03:18:28;14.00;;;6.90;;
5299;SDS011;70402;42.670;23.258;2023-05-29T03:20:55;9.10;;;6.80;;
5299;SDS011;70402;42.670;23.258;2023-05-29T03:23:22;13.00;;;6.90;;
5299;SDS011;70402;42.670;23.258;2023-05-29T03:25:48;10.33;;;6.50;;
5299;SDS011;70402;42.670;23.258;2023-05-29T03:28:14;9.47;;;6.83;;
5299;SDS011;70402;42.670;23.258;2023-05-29T03:30:40;10.27;;;7.60;;
5299;SDS011;70402;42.670;23.258;2023-05-29T03:33:06;10.60;;;7.37;;
5299;SDS011;70402;42.670;23.258;2023-05-29T03:35:32;7.97;;;6.70;;
5299;SDS011;70402;42.670;23.258;2023-05-29T03:37:58;13.90;;;6.23;;
5299;SDS011;70402;42.670;23.258;2023-05-29T03:40:24;8.27;;;7.03;;
5299;SDS011;70402;42.670;23.258;2023-05-29T03:42:50;11.43;;;6.50;;
5299;SDS011;70402;42.670;23.258;2023-05-29T03:45:16;11.27;;;6.60;;
5299;SDS011;70402;42.670;23.258;2023-05-29T03:47:42;11.40;;;6.90;;
5299;SDS011;70402;42.670;23.258;2023-05-29T03:50:08;12.40;;;7.10;;
5299;SDS011;70402;42.670;23.258;2023-05-29T03:52:34;8.67;;;6.80;;
5299;SDS011;70402;42.670;23.258;2023-05-29T03:55:01;12.13;;;7.07;;
5299;SDS011;70402;42.670;23.258;2023-05-29T03:57:27;10.40;;;7.13;;
5299;SDS011;70402;42.670;23.258;2023-05-29T03:59:53;11.60;;;7.60;;
5299;SDS011;70402;42.670;23.258;2023-05-29T04:02:19;10.87;;;7.40;;
5299;SDS011;70402;42.670;23.258;2023-05-29T04:04:45;8.90;;;7.37;;
5299;SDS011;70402;42.670;23.258;2023-05-29T04:07:12;8.73;;;6.93;;
5299;SDS011;70402;42.670;23.258;2023-05-29T04:09:37;14.43;;;6.83;;
5299;SDS011;70402;42.670;23.258;2023-05-29T04:12:03;12.20;;;8.10;;
5299;SDS011;70402;42.670;23.258;2023-05-29T04:14:31;20.70;;;7.83;;
5299;SDS011;70402;42.670;23.258;2023-05-29T04:16:56;16.30;;;7.47;;
5299;SDS011;70402;42.670;23.258;2023-05-29T04:19:22;19.70;;;8.37;;
5299;SDS011;70402;42.670;23.258;2023-05-29T04:21:48;18.30;;;8.27;;
5299;SDS011;70402;42.670;23.258;2023-05-29T04:24:14;10.87;;;6.63;;
5299;SDS011;70402;42.670;23.258;2023-05-29T04:26:40;15.70;;;8.10;;
5299;SDS011;70402;42.670;23.258;2023-05-29T04:29:06;18.03;;;8.33;;
5299;SDS011;70402;42.670;23.258;2023-05-29T04:31:37;13.83;;;8.83;;
5299;SDS011;70402;42.670;23.258;2023-05-29T04:34:03;13.30;;;8.10;;
5299;SDS011;70402;42.670;23.258;2023-05-29T04:36:32;15.30;;;8.27;;
5299;SDS011;70402;42.670;23.258;2023-05-29T04:38:58;13.63;;;7.87;;
5299;SDS011;70402;42.670;23.258;2023-05-29T04:41:25;15.00;;;8.10;;
5299;SDS011;70402;42.670;23.258;2023-05-29T04:43:56;6.33;;;3.70;;
5299;SDS011;70402;42.670;23.258;2023-05-29T04:46:23;6.73;;;4.63;;
5299;SDS011;70402;42.670;23.258;2023-05-29T04:48:52;20.50;;;6.90;;
5299;SDS011;70402;42.670;23.258;2023-05-29T04:51:19;11.43;;;6.87;;
5299;SDS011;70402;42.670;23.258;2023-05-29T04:53:46;14.93;;;7.93;;
5299;SDS011;70402;42.670;23.258;2023-05-29T04:56:15;10.80;;;6.30;;
5299;SDS011;70402;42.670;23.258;2023-05-29T04:58:41;16.37;;;6.67;;
5299;SDS011;70402;42.670;23.258;2023-05-29T05:01:07;10.37;;;6.43;;
5299;SDS011;70402;42.670;23.258;2023-05-29T05:03:34;21.47;;;6.90;;
5299;SDS011;70402;42.670;23.258;2023-05-29T05:06:01;4.97;;;2.87;;
5299;SDS011;70402;42.670;23.258;2023-05-29T05:08:31;7.80;;;3.40;;
5299;SDS011;70402;42.670;23.258;2023-05-29T05:10:59;11.00;;;5.23;;
5299;SDS011;70402;42.670;23.258;2023-05-29T05:13:25;13.63;;;6.50;;
5299;SDS011;70402;42.670;23.258;2023-05-29T05:15:51;25.37;;;4.70;;
5299;SDS011;70402;42.670;23.258;2023-05-29T05:18:18;7.67;;;4.67;;
5299;SDS011;70402;42.670;23.258;2023-05-29T05:20:44;16.53;;;4.40;;
5299;SDS011;70402;42.670;23.258;2023-05-29T05:23:10;15.40;;;5.40;;
5299;SDS011;70402;42.670;23.258;2023-05-29T05:25:36;7.67;;;4.17;;
5299;SDS011;70402;42.670;23.258;2023-05-29T05:28:04;12.47;;;6.03;;
5299;SDS011;70402;42.670;23.258;2023-05-29T05:30:30;16.70;;;6.23;;
5299;SDS011;70402;42.670;23.258;2023-05-29T05:32:56;12.07;;;7.43;;
5299;SDS011;70402;42.670;23.258;2023-05-29T05:35:23;19.60;;;6.63;;
5299;SDS011;70402;42.670;23.258;2023-05-29T05:37:49;15.20;;;6.90;;
5299;SDS011;70402;42.670;23.258;2023-05-29T05:40:15;12.23;;;7.80;;
5299;SDS011;70402;42.670;23.258;2023-05-29T05:42:41;17.03;;;8.40;;
5299;SDS011;70402;42.670;23.258;2023-05-29T05:45:07;13.23;;;7.60;;
5299;SDS011;70402;42.670;23.258;2023-05-29T05:47:34;16.53;;;8.40;;
5299;SDS011;70402;42.670;23.258;2023-05-29T05:50:00;16.60;;;9.83;;
5299;SDS011;70402;42.670;23.258;2023-05-29T05:52:26;16.73;;;7.67;;
5299;SDS011;70402;42.670;23.258;2023-05-29T05:54:56;15.37;;;7.20;;
5299;SDS011;70402;42.670;23.258;2023-05-29T05:57:22;12.00;;;7.70;;
5299;SDS011;70402;42.670;23.258;2023-05-29T05:59:48;19.00;;;6.87;;
5299;SDS011;70402;42.670;23.258;2023-05-29T06:02:14;8.80;;;5.30;;
5299;SDS011;70402;42.670;23.258;2023-05-29T06:04:40;16.10;;;7.10;;
5299;SDS011;70402;42.670;23.258;2023-05-29T06:07:06;13.13;;;5.80;;
5299;SDS011;70402;42.670;23.258;2023-05-29T06:09:32;10.00;;;5.70;;
5299;SDS011;70402;42.670;23.258;2023-05-29T06:11:58;7.20;;;5.00;;
5299;SDS011;70402;42.670;23.258;2023-05-29T06:14:25;7.70;;;4.37;;
5299;SDS011;70402;42.670;23.258;2023-05-29T06:16:51;11.00;;;4.27;;
5299;SDS011;70402;42.670;23.258;2023-05-29T06:19:17;6.37;;;3.20;;
5299;SDS011;70402;42.670;23.258;2023-05-29T06:21:43;7.67;;;3.60;;
5299;SDS011;70402;42.670;23.258;2023-05-29T06:24:09;5.10;;;3.70;;
5299;SDS011;70402;42.670;23.258;2023-05-29T06:26:36;10.50;;;5.00;;
5299;SDS011;70402;42.670;23.258;2023-05-29T06:29:02;12.30;;;3.90;;
5299;SDS011;70402;42.670;23.258;2023-05-29T06:31:28;11.60;;;4.90;;
5299;SDS011;70402;42.670;23.258;2023-05-29T06:33:54;18.33;;;4.90;;
5299;SDS011;70402;42.670;23.258;2023-05-29T06:36:20;9.67;;;5.67;;
5299;SDS011;70402;42.670;23.258;2023-05-29T06:38:49;10.03;;;5.70;;
5299;SDS011;70402;42.670;23.258;2023-05-29T06:41:16;18.03;;;6.53;;
5299;SDS011;70402;42.670;23.258;2023-05-29T06:43:42;9.43;;;4.70;;
5299;SDS011;70402;42.670;23.258;2023-05-29T06:46:08;23.43;;;6.00;;
5299;SDS011;70402;42.670;23.258;2023-05-29T06:48:35;8.90;;;5.03;;
5299;SDS011;70402;42.670;23.258;2023-05-29T06:51:01;6.33;;;4.50;;
5299;SDS011;70402;42.670;23.258;2023-05-29T06:53:36;15.80;;;4.10;;
5299;SDS011;70402;42.670;23.258;2023-05-29T06:56:06;4.67;;;3.50;;
5299;SDS011;70402;42.670;23.258;2023-05-29T06:58:32;4.67;;;2.87;;
5299;SDS011;70402;42.670;23.258;2023-05-29T07:00:58;4.90;;;2.97;;
5299;SDS011;70402;42.670;23.258;2023-05-29T07:03:27;4.40;;;2.90;;
5299;SDS011;70402;42.670;23.258;2023-05-29T07:05:54;7.50;;;3.70;;
5299;SDS011;70402;42.670;23.258;2023-05-29T07:08:20;11.53;;;3.57;;
5299;SDS011;70402;42.670;23.258;2023-05-29T07:10:46;4.83;;;2.93;;
5299;SDS011;70402;42.670;23.258;2023-05-29T07:13:14;9.57;;;3.70;;
5299;SDS011;70402;42.670;23.258;2023-05-29T07:15:41;5.33;;;2.60;;
5299;SDS011;70402;42.670;23.258;2023-05-29T07:18:07;6.37;;;2.67;;
5299;SDS011;70402;42.670;23.258;2023-05-29T07:20:33;7.20;;;2.67;;
5299;SDS011;70402;42.670;23.258;2023-05-29T07:22:59;13.63;;;2.47;;
5299;SDS011;70402;42.670;23.258;2023-05-29T07:25:25;5.47;;;2.67;;
5299;SDS011;70402;42.670;23.258;2023-05-29T07:27:51;4.73;;;2.30;;
5299;SDS011;70402;42.670;23.258;2023-05-29T07:30:17;3.60;;;1.90;;
5299;SDS011;70402;42.670;23.258;2023-05-29T07:32:43;5.07;;;2.20;;
5299;SDS011;70402;42.670;23.258;2023-05-29T07:35:10;1.93;;;1.63;;
5299;SDS011;70402;42.670;23.258;2023-05-29T07:37:37;2.53;;;1.70;;
5299;SDS011;70402;42.670;23.258;2023-05-29T07:40:03;5.23;;;2.07;;
5299;SDS011;70402;42.670;23.258;2023-05-29T07:42:31;3.33;;;1.70;;
5299;SDS011;70402;42.670;23.258;2023-05-29T07:44:58;2.97;;;1.90;;
5299;SDS011;70402;42.670;23.258;2023-05-29T07:47:24;2.60;;;2.20;;
5299;SDS011;70402;42.670;23.258;2023-05-29T07:49:50;3.33;;;1.93;;
5299;SDS011;70402;42.670;23.258;2023-05-29T07:52:17;4.47;;;2.17;;
5299;SDS011;70402;42.670;23.258;2023-05-29T07:54:43;4.57;;;2.10;;
5299;SDS011;70402;42.670;23.258;2023-05-29T07:57:09;6.50;;;2.17;;
5299;SDS011;70402;42.670;23.258;2023-05-29T07:59:35;5.93;;;2.43;;
5299;SDS011;70402;42.670;23.258;2023-05-29T08:02:02;6.50;;;2.53;;
5299;SDS011;70402;42.670;23.258;2023-05-29T08:04:29;3.87;;;2.10;;
5299;SDS011;70402;42.670;23.258;2023-05-29T08:06:55;5.20;;;2.17;;
5299;SDS011;70402;42.670;23.258;2023-05-29T08:09:21;4.17;;;2.20;;
5299;SDS011;70402;42.670;23.258;2023-05-29T08:11:48;4.27;;;2.00;;
5299;SDS011;70402;42.670;23.258;2023-05-29T08:14:14;2.00;;;1.70;;
5299;SDS011;70402;42.670;23.258;2023-05-29T08:16:41;3.00;;;1.97;;
5299;SDS011;70402;42.670;23.258;2023-05-29T08:19:07;6.13;;;2.67;;
5299;SDS011;70402;42.670;23.258;2023-05-29T08:21:33;7.23;;;2.43;;
5299;SDS011;70402;42.670;23.258;2023-05-29T08:23:59;3.57;;;2.10;;
5299;SDS011;70402;42.670;23.258;2023-05-29T08:26:27;7.50;;;2.47;;
5299;SDS011;70402;42.670;23.258;2023-05-29T08:28:52;5.40;;;2.27;;
5299;SDS011;70402;42.670;23.258;2023-05-29T08:31:19;13.13;;;3.40;;
5299;SDS011;70402;42.670;23.258;2023-05-29T08:33:45;7.03;;;2.90;;
5299;SDS011;70402;42.670;23.258;2023-05-29T08:36:12;3.40;;;2.17;;
5299;SDS011;70402;42.670;23.258;2023-05-29T08:38:38;3.53;;;2.17;;
5299;SDS011;70402;42.670;23.258;2023-05-29T08:41:04;4.13;;;1.80;;
5299;SDS011;70402;42.670;23.258;2023-05-29T08:43:31;6.00;;;2.23;;
5299;SDS011;70402;42.670;23.258;2023-05-29T08:46:00;3.30;;;2.10;;
5299;SDS011;70402;42.670;23.258;2023-05-29T08:48:28;10.40;;;2.00;;
5299;SDS011;70402;42.670;23.258;2023-05-29T08:50:55;3.63;;;2.50;;
5299;SDS011;70402;42.670;23.258;2023-05-29T08:53:22;5.20;;;2.60;;
5299;SDS011;70402;42.670;23.258;2023-05-29T08:55:50;7.73;;;2.13;;
5299;SDS011;70402;42.670;23.258;2023-05-29T08:58:18;10.23;;;2.50;;
5299;SDS011;70402;42.670;23.258;2023-05-29T09:00:46;5.67;;;2.60;;
5299;SDS011;70402;42.670;23.258;2023-05-29T09:03:13;7.43;;;2.40;;
5299;SDS011;70402;42.670;23.258;2023-05-29T09:05:39;6.60;;;2.70;;
5299;SDS011;70402;42.670;23.258;2023-05-29T09:08:07;6.30;;;2.83;;
5299;SDS011;70402;42.670;23.258;2023-05-29T09:10:34;6.20;;;2.97;;
5299;SDS011;70402;42.670;23.258;2023-05-29T09:13:00;5.73;;;2.37;;
5299;SDS011;70402;42.670;23.258;2023-05-29T09:15:26;4.70;;;2.27;;
5299;SDS011;70402;42.670;23.258;2023-05-29T09:17:53;9.10;;;2.33;;
5299;SDS011;70402;42.670;23.258;2023-05-29T09:20:21;4.43;;;2.37;;
5299;SDS011;70402;42.670;23.258;2023-05-29T09:25:23;8.30;;;2.30;;
5299;SDS011;70402;42.670;23.258;2023-05-29T09:27:53;8.40;;;2.60;;
5299;SDS011;70402;42.670;23.258;2023-05-29T09:30:32;8.03;;;2.50;;
5299;SDS011;70402;42.670;23.258;2023-05-29T09:33:03;3.53;;;2.20;;
5299;SDS011;70402;42.670;23.258;2023-05-29T09:38:25;3.63;;;2.40;;
5299;SDS011;70402;42.670;23.258;2023-05-29T09:40:51;3.53;;;2.00;;
5299;SDS011;70402;42.670;23.258;2023-05-29T09:43:20;3.20;;;2.03;;
5299;SDS011;70402;42.670;23.258;2023-05-29T09:45:49;3.13;;;2.50;;
5299;SDS011;70402;42.670;23.258;2023-05-29T09:48:16;8.50;;;2.43;;
5299;SDS011;70402;42.670;23.258;2023-05-29T09:50:44;3.97;;;2.33;;
5299;SDS011;70402;42.670;23.258;2023-05-29T09:53:16;4.77;;;3.03;;
5299;SDS011;70402;42.670;23.258;2023-05-29T09:55:45;11.57;;;2.60;;
5299;SDS011;70402;42.670;23.258;2023-05-29T09:58:15;4.67;;;2.20;;
5299;SDS011;70402;42.670;23.258;2023-05-29T10:00:43;4.30;;;2.60;;
5299;SDS011;70402;42.670;23.258;2023-05-29T10:03:12;5.20;;;3.03;;
5299;SDS011;70402;42.670;23.258;2023-05-29T10:05:39;3.63;;;2.53;;
5299;SDS011;70402;42.670;23.258;2023-05-29T10:08:05;6.37;;;2.20;;
5299;SDS011;70402;42.670;23.258;2023-05-29T10:10:37;2.43;;;2.17;;
5299;SDS011;70402;42.670;23.258;2023-05-29T10:13:09;3.50;;;2.43;;
5299;SDS011;70402;42.670;23.258;2023-05-29T10:15:37;7.20;;;2.30;;
5299;SDS011;70402;42.670;23.258;2023-05-29T10:18:03;3.90;;;2.33;;
5299;SDS011;70402;42.670;23.258;2023-05-29T10:20:35;4.80;;;2.80;;
5299;SDS011;70402;42.670;23.258;2023-05-29T10:23:01;5.67;;;2.73;;
5299;SDS011;70402;42.670;23.258;2023-05-29T10:25:29;3.47;;;2.50;;
5299;SDS011;70402;42.670;23.258;2023-05-29T10:27:56;3.33;;;2.33;;
5299;SDS011;70402;42.670;23.258;2023-05-29T10:30:30;3.10;;;2.50;;
5299;SDS011;70402;42.670;23.258;2023-05-29T10:35:59;3.57;;;2.20;;
5299;SDS011;70402;42.670;23.258;2023-05-29T10:38:46;4.13;;;2.40;;
5299;SDS011;70402;42.670;23.258;2023-05-29T10:43:57;9.63;;;2.90;;
5299;SDS011;70402;42.670;23.258;2023-05-29T10:49:18;7.03;;;3.03;;
5299;SDS011;70402;42.670;23.258;2023-05-29T10:51:45;11.10;;;3.10;;
5299;SDS011;70402;42.670;23.258;2023-05-29T10:54:11;10.73;;;3.17;;
5299;SDS011;70402;42.670;23.258;2023-05-29T10:56:39;3.50;;;2.70;;
5299;SDS011;70402;42.670;23.258;2023-05-29T10:59:07;4.67;;;3.10;;
5299;SDS011;70402;42.670;23.258;2023-05-29T11:01:33;3.70;;;2.63;;
5299;SDS011;70402;42.670;23.258;2023-05-29T11:06:49;5.77;;;2.73;;
5299;SDS011;70402;42.670;23.258;2023-05-29T11:09:35;7.13;;;2.87;;
5299;SDS011;70402;42.670;23.258;2023-05-29T11:15:08;15.23;;;4.10;;
5299;SDS011;70402;42.670;23.258;2023-05-29T11:20:05;4.40;;;3.20;;
5299;SDS011;70402;42.670;23.258;2023-05-29T11:22:56;5.60;;;2.90;;
5299;SDS011;70402;42.670;23.258;2023-05-29T11:25:25;8.83;;;3.60;;
5299;SDS011;70402;42.670;23.258;2023-05-29T11:27:52;5.63;;;4.00;;
5299;SDS011;70402;42.670;23.258;2023-05-29T11:30:21;6.50;;;2.93;;
5299;SDS011;70402;42.670;23.258;2023-05-29T11:32:47;10.63;;;3.93;;
5299;SDS011;70402;42.670;23.258;2023-05-29T11:35:15;6.23;;;3.63;;
5299;SDS011;70402;42.670;23.258;2023-05-29T11:37:42;5.77;;;3.03;;
5299;SDS011;70402;42.670;23.258;2023-05-29T11:40:12;5.60;;;2.97;;
5299;SDS011;70402;42.670;23.258;2023-05-29T11:42:47;8.80;;;3.07;;
5299;SDS011;70402;42.670;23.258;2023-05-29T11:45:19;9.73;;;3.10;;
5299;SDS011;70402;42.670;23.258;2023-05-29T11:47:56;3.73;;;2.77;;
5299;SDS011;70402;42.670;23.258;2023-05-29T11:50:27;7.10;;;3.10;;
5299;SDS011;70402;42.670;23.258;2023-05-29T11:52:55;3.37;;;2.70;;
5299;SDS011;70402;42.670;23.258;2023-05-29T11:55:22;5.63;;;3.00;;
5299;SDS011;70402;42.670;23.258;2023-05-29T11:57:55;3.97;;;2.60;;
5299;SDS011;70402;42.670;23.258;2023-05-29T12:00:25;6.57;;;2.33;;
5299;SDS011;70402;42.670;23.258;2023-05-29T12:02:54;5.40;;;2.50;;
5299;SDS011;70402;42.670;23.258;2023-05-29T12:05:20;6.37;;;2.80;;
5299;SDS011;70402;42.670;23.258;2023-05-29T12:10:16;4.70;;;2.80;;
5299;SDS011;70402;42.670;23.258;2023-05-29T12:12:47;9.20;;;3.73;;
5299;SDS011;70402;42.670;23.258;2023-05-29T12:15:15;4.63;;;3.30;;
5299;SDS011;70402;42.670;23.258;2023-05-29T12:17:43;7.60;;;3.17;;
5299;SDS011;70402;42.670;23.258;2023-05-29T12:20:10;8.40;;;3.43;;
5299;SDS011;70402;42.670;23.258;2023-05-29T12:22:38;5.37;;;3.60;;
5299;SDS011;70402;42.670;23.258;2023-05-29T12:25:21;15.23;;;4.17;;
5299;SDS011;70402;42.670;23.258;2023-05-29T12:27:47;5.57;;;3.33;;
5299;SDS011;70402;42.670;23.258;2023-05-29T12:30:14;7.37;;;3.50;;
5299;SDS011;70402;42.670;23.258;2023-05-29T12:32:48;15.13;;;5.47;;
5299;SDS011;70402;42.670;23.258;2023-05-29T12:35:20;9.43;;;4.30;;
5299;SDS011;70402;42.670;23.258;2023-05-29T12:37:47;9.10;;;4.10;;
5299;SDS011;70402;42.670;23.258;2023-05-29T12:40:27;7.93;;;4.20;;
5299;SDS011;70402;42.670;23.258;2023-05-29T12:43:01;5.10;;;3.60;;
5299;SDS011;70402;42.670;23.258;2023-05-29T12:45:29;6.60;;;3.67;;
5299;SDS011;70402;42.670;23.258;2023-05-29T12:50:26;7.13;;;4.40;;
5299;SDS011;70402;42.670;23.258;2023-05-29T12:52:58;6.70;;;5.10;;
5299;SDS011;70402;42.670;23.258;2023-05-29T12:55:31;5.43;;;4.47;;
5299;SDS011;70402;42.670;23.258;2023-05-29T12:58:04;10.10;;;5.03;;
5299;SDS011;70402;42.670;23.258;2023-05-29T13:00:31;5.57;;;4.17;;
5299;SDS011;70402;42.670;23.258;2023-05-29T13:03:01;5.17;;;4.17;;
5299;SDS011;70402;42.670;23.258;2023-05-29T13:05:27;5.37;;;4.00;;
5299;SDS011;70402;42.670;23.258;2023-05-29T13:07:53;4.80;;;3.87;;
5299;SDS011;70402;42.670;23.258;2023-05-29T13:10:20;7.97;;;4.50;;
5299;SDS011;70402;42.670;23.258;2023-05-29T13:12:46;11.70;;;4.30;;
5299;SDS011;70402;42.670;23.258;2023-05-29T13:15:13;5.77;;;3.33;;
5299;SDS011;70402;42.670;23.258;2023-05-29T13:17:40;6.83;;;3.80;;
5299;SDS011;70402;42.670;23.258;2023-05-29T13:20:09;8.70;;;4.03;;
5299;SDS011;70402;42.670;23.258;2023-05-29T13:22:37;4.97;;;2.87;;
5299;SDS011;70402;42.670;23.258;2023-05-29T13:25:04;27.03;;;19.23;;
5299;SDS011;70402;42.670;23.258;2023-05-29T13:27:32;15.20;;;11.37;;
5299;SDS011;70402;42.670;23.258;2023-05-29T13:29:59;15.53;;;12.00;;
5299;SDS011;70402;42.670;23.258;2023-05-29T13:32:25;10.70;;;6.87;;
5299;SDS011;70402;42.670;23.258;2023-05-29T13:34:51;7.77;;;4.93;;
5299;SDS011;70402;42.670;23.258;2023-05-29T13:37:17;8.17;;;4.30;;
5299;SDS011;70402;42.670;23.258;2023-05-29T13:39:43;5.07;;;3.40;;
5299;SDS011;70402;42.670;23.258;2023-05-29T13:42:09;8.47;;;3.70;;
5299;SDS011;70402;42.670;23.258;2023-05-29T13:44:36;4.60;;;3.23;;
5299;SDS011;70402;42.670;23.258;2023-05-29T13:47:02;3.00;;;2.70;;
5299;SDS011;70402;42.670;23.258;2023-05-29T13:49:28;6.17;;;3.10;;
5299;SDS011;70402;42.670;23.258;2023-05-29T13:51:54;5.67;;;2.87;;
5299;SDS011;70402;42.670;23.258;2023-05-29T13:54:20;3.83;;;2.10;;
5299;SDS011;70402;42.670;23.258;2023-05-29T13:56:47;3.77;;;2.20;;
5299;SDS011;70402;42.670;23.258;2023-05-29T13:59:13;2.27;;;1.83;;
5299;SDS011;70402;42.670;23.258;2023-05-29T14:01:40;2.50;;;1.97;;
5299;SDS011;70402;42.670;23.258;2023-05-29T14:04:06;6.67;;;2.97;;
5299;SDS011;70402;42.670;23.258;2023-05-29T14:06:35;6.43;;;2.90;;
5299;SDS011;70402;42.670;23.258;2023-05-29T14:09:02;4.20;;;3.10;;
5299;SDS011;70402;42.670;23.258;2023-05-29T14:11:28;4.73;;;2.97;;
5299;SDS011;70402;42.670;23.258;2023-05-29T14:13:54;2.80;;;2.60;;
5299;SDS011;70402;42.670;23.258;2023-05-29T14:16:20;3.40;;;2.83;;
5299;SDS011;70402;42.670;23.258;2023-05-29T14:18:47;8.30;;;3.00;;
5299;SDS011;70402;42.670;23.258;2023-05-29T14:21:13;4.10;;;2.33;;
5299;SDS011;70402;42.670;23.258;2023-05-29T14:23:39;4.10;;;2.00;;
5299;SDS011;70402;42.670;23.258;2023-05-29T14:26:05;4.80;;;2.03;;
5299;SDS011;70402;42.670;23.258;2023-05-29T14:28:32;3.50;;;2.20;;
5299;SDS011;70402;42.670;23.258;2023-05-29T14:30:58;3.30;;;1.37;;
5299;SDS011;70402;42.670;23.258;2023-05-29T14:33:24;2.60;;;1.87;;
5299;SDS011;70402;42.670;23.258;2023-05-29T14:35:50;2.40;;;1.60;;
5299;SDS011;70402;42.670;23.258;2023-05-29T14:38:16;7.10;;;1.50;;
5299;SDS011;70402;42.670;23.258;2023-05-29T14:40:42;2.60;;;1.40;;
5299;SDS011;70402;42.670;23.258;2023-05-29T14:43:09;3.80;;;1.40;;
5299;SDS011;70402;42.670;23.258;2023-05-29T14:45:35;3.67;;;1.47;;
5299;SDS011;70402;42.670;23.258;2023-05-29T14:48:01;2.50;;;1.87;;
5299;SDS011;70402;42.670;23.258;2023-05-29T14:50:27;2.37;;;2.00;;
5299;SDS011;70402;42.670;23.258;2023-05-29T14:52:53;3.87;;;2.10;;
5299;SDS011;70402;42.670;23.258;2023-05-29T14:55:19;10.33;;;2.10;;
5299;SDS011;70402;42.670;23.258;2023-05-29T14:57:45;3.90;;;2.10;;
5299;SDS011;70402;42.670;23.258;2023-05-29T15:00:11;4.50;;;1.90;;
5299;SDS011;70402;42.670;23.258;2023-05-29T15:02:38;3.60;;;2.43;;
5299;SDS011;70402;42.670;23.258;2023-05-29T15:05:06;2.23;;;1.87;;
5299;SDS011;70402;42.670;23.258;2023-05-29T15:07:33;8.67;;;1.90;;
5299;SDS011;70402;42.670;23.258;2023-05-29T15:10:02;4.63;;;2.17;;
5299;SDS011;70402;42.670;23.258;2023-05-29T15:12:29;2.07;;;1.83;;
5299;SDS011;70402;42.670;23.258;2023-05-29T15:14:55;2.30;;;1.97;;
5299;SDS011;70402;42.670;23.258;2023-05-29T15:17:21;8.53;;;4.00;;
5299;SDS011;70402;42.670;23.258;2023-05-29T15:19:46;3.67;;;2.00;;
5299;SDS011;70402;42.670;23.258;2023-05-29T15:22:13;5.77;;;2.30;;